createdAt,value
2022-11-05T00:01:18.066Z,101822.09
2022-11-05T00:06:38.354Z,101841.38
2022-11-05T00:12:12.239Z,101844.53
2022-11-05T00:17:15.632Z,101854.84
2022-11-05T00:22:35.708Z,101866.44
2022-11-05T00:27:39.994Z,101880.06
2022-11-05T00:32:41.620Z,101890.66
2022-11-05T00:37:48.757Z,101882.78
2022-11-05T00:43:12.040Z,101884.75
2022-11-05T00:48:49.260Z,101885.75
2022-11-05T00:53:51.048Z,101882.81
2022-11-05T00:58:52.569Z,101886.84
2022-11-05T01:03:54.086Z,101891.84
2022-11-05T01:08:56.012Z,101901.78
2022-11-05T01:13:57.528Z,101906.19
2022-11-05T01:18:59.187Z,101913.38
2022-11-05T01:24:01.203Z,101916.81
2022-11-05T01:29:02.795Z,101915.59
2022-11-05T01:34:04.477Z,101919.38
2022-11-05T01:39:05.993Z,101910.44
2022-11-05T01:44:47.868Z,101901.66
2022-11-05T01:49:49.778Z,101907.09
2022-11-05T01:54:51.435Z,101904.38
2022-11-05T01:59:59.257Z,101906.69
2022-11-05T02:05:06.359Z,101908.72
2022-11-05T02:10:10.807Z,101906.19
2022-11-05T02:15:14.772Z,101895.00
2022-11-05T02:20:28.584Z,101895.97
2022-11-05T02:26:08.676Z,101886.72
2022-11-05T02:31:24.590Z,101894.38
2022-11-05T02:36:25.992Z,101897.53
2022-11-05T02:41:47.892Z,101887.81
2022-11-05T02:47:08.122Z,101873.31
2022-11-05T02:52:23.322Z,101873.47
2022-11-05T02:57:29.598Z,101870.13
2022-11-05T03:02:31.669Z,101870.78
2022-11-05T03:07:42.318Z,101873.94
2022-11-05T03:13:16.824Z,101869.78
2022-11-05T03:18:44.408Z,101870.03
2022-11-05T03:23:56.474Z,101875.72
2022-11-05T03:29:13.176Z,101878.16
2022-11-05T03:34:19.531Z,101891.38
2022-11-05T03:39:29.253Z,101893.34
2022-11-05T03:44:35.409Z,101896.47
2022-11-05T03:49:48.650Z,101902.91
2022-11-05T03:54:50.550Z,101902.94
2022-11-05T03:59:52.391Z,101915.06
2022-11-05T04:04:55.030Z,101927.97
2022-11-05T04:10:15.740Z,101927.50
2022-11-05T04:15:17.234Z,101934.22
2022-11-05T04:20:37.338Z,101934.44
2022-11-05T04:25:38.894Z,101927.97
2022-11-05T04:30:40.978Z,101929.28
2022-11-05T04:35:49.653Z,101934.44
2022-11-05T04:40:51.191Z,101937.09
2022-11-05T04:45:55.785Z,101940.22
2022-11-05T04:50:57.330Z,101944.84
2022-11-05T04:56:15.067Z,101952.06
2022-11-05T05:01:19.195Z,101953.50
2022-11-05T05:06:21.554Z,101957.59
2022-11-05T05:11:23.185Z,101966.59
2022-11-05T05:16:27.370Z,101962.38
2022-11-05T05:21:41.558Z,101965.56
2022-11-05T05:26:45.046Z,101980.75
2022-11-05T05:31:47.597Z,101987.53
2022-11-05T05:36:49.795Z,101982.44
2022-11-05T05:41:51.436Z,101994.72
2022-11-05T05:46:54.162Z,101991.81
2022-11-05T05:51:56.695Z,102005.69
2022-11-05T05:56:58.180Z,102007.78
2022-11-05T06:02:00.671Z,102005.56
2022-11-05T06:07:02.444Z,102011.28
2022-11-05T06:12:04.268Z,102016.75
2022-11-05T06:17:07.305Z,102026.41
2022-11-05T06:22:08.835Z,102042.31
2022-11-05T06:27:10.395Z,102050.75
2022-11-05T06:32:12.018Z,102054.78
2022-11-05T06:37:13.650Z,102052.66
2022-11-05T06:42:19.244Z,102062.13
2022-11-05T06:47:21.525Z,102059.53
2022-11-05T06:52:23.041Z,102056.97
2022-11-05T06:57:24.546Z,102055.47
2022-11-05T07:02:26.168Z,102067.44
2022-11-05T07:07:30.457Z,102079.41
2022-11-05T07:12:32.025Z,102073.91
2022-11-05T07:17:33.625Z,102099.28
2022-11-05T07:22:35.636Z,102091.19
2022-11-05T07:27:40.689Z,102099.53
2022-11-05T07:32:42.573Z,102115.19
2022-11-05T07:37:45.395Z,102124.50
2022-11-05T07:42:49.651Z,102141.22
2022-11-05T07:47:56.224Z,102152.97
2022-11-05T07:53:10.361Z,102158.38
2022-11-05T07:58:12.342Z,102171.66
2022-11-05T08:03:17.191Z,102177.06
2022-11-05T08:08:19.831Z,102163.81
2022-11-05T08:13:21.381Z,102139.03
2022-11-05T08:18:23.293Z,102108.72
2022-11-05T08:23:25.812Z,102095.50
2022-11-05T08:28:27.399Z,102055.81
2022-11-05T08:33:31.533Z,102028.16
2022-11-05T08:38:33.282Z,102005.69
2022-11-05T08:43:34.798Z,101988.53
2022-11-05T08:48:36.330Z,101971.94
2022-11-05T08:53:37.809Z,101973.34
2022-11-05T08:58:39.361Z,101965.22
2022-11-05T09:03:40.842Z,101963.22
2022-11-05T09:08:42.591Z,101961.00
2022-11-05T09:13:44.500Z,101953.38
2022-11-05T09:18:46.083Z,101955.75
2022-11-05T09:23:48.050Z,101962.38
2022-11-05T09:28:49.533Z,101962.59
2022-11-05T09:33:51.104Z,101962.78
2022-11-05T09:38:52.747Z,101964.88
2022-11-05T09:43:59.272Z,101970.84
2022-11-05T09:49:05.979Z,101958.16
2022-11-05T09:54:07.722Z,101962.50
2022-11-05T09:59:22.180Z,101951.34
2022-11-05T10:04:26.142Z,101905.66
2022-11-05T10:09:35.163Z,101847.25
2022-11-05T10:14:42.920Z,101820.59
2022-11-05T10:19:49.350Z,101799.41
2022-11-05T10:24:52.374Z,101777.53
2022-11-05T10:29:54.189Z,101778.34
2022-11-05T10:34:58.978Z,101760.31
2022-11-05T10:40:00.824Z,101763.38
2022-11-05T10:45:23.952Z,101758.66
2022-11-05T10:50:28.556Z,101766.88
2022-11-05T10:55:34.813Z,101752.75
2022-11-05T11:00:37.104Z,101755.69
2022-11-05T11:05:40.327Z,101748.59
2022-11-05T11:10:54.764Z,101753.53
2022-11-05T11:16:20.606Z,101756.72
2022-11-05T11:21:23.728Z,101754.34
2022-11-05T11:26:31.875Z,101748.78
2022-11-05T11:31:38.692Z,101762.66
2022-11-05T11:36:45.653Z,101774.59
2022-11-05T11:41:52.467Z,101774.53
2022-11-05T11:46:58.433Z,101780.59
2022-11-05T11:52:04.196Z,101789.72
2022-11-05T11:57:30.957Z,101793.13
2022-11-05T12:02:44.527Z,101792.34
2022-11-05T12:07:58.050Z,101788.25
2022-11-05T12:13:18.389Z,101783.09
2022-11-05T12:18:47.684Z,101785.94
2022-11-05T12:24:09.125Z,101778.06
2022-11-05T12:29:35.365Z,101770.41
2022-11-05T12:35:05.530Z,101760.44
2022-11-05T12:40:14.966Z,101754.81
2022-11-05T12:45:29.746Z,101760.56
2022-11-05T12:51:13.136Z,101753.78
2022-11-05T12:56:30.455Z,101757.19
2022-11-05T13:01:39.031Z,101758.38
2022-11-05T13:06:46.181Z,101759.69
2022-11-05T13:12:06.442Z,101760.75
2022-11-05T13:17:14.827Z,101753.28
2022-11-05T13:22:38.205Z,101752.66
2022-11-05T13:28:21.100Z,101749.16
2022-11-05T13:33:27.379Z,101739.34
2022-11-05T13:38:47.525Z,101736.59
2022-11-05T13:50:56.206Z,101729.16
2022-11-05T13:56:19.753Z,101723.94
2022-11-05T14:01:45.570Z,101692.81
2022-11-05T14:06:50.153Z,101709.66
2022-11-05T14:12:23.423Z,101717.53
2022-11-05T14:17:56.692Z,101716.47
2022-11-05T14:23:25.959Z,101730.00
2022-11-05T14:28:36.560Z,101728.13
2022-11-05T14:33:39.558Z,101725.25
2022-11-05T14:38:50.411Z,101732.97
2022-11-05T14:44:01.232Z,101728.47
2022-11-05T14:49:09.190Z,101737.72
2022-11-05T14:54:28.225Z,101737.84
2022-11-05T14:59:31.734Z,101726.09
2022-11-05T15:04:40.466Z,101728.25
2022-11-05T15:09:44.891Z,101725.41
2022-11-05T15:14:55.723Z,101726.06
2022-11-05T15:20:09.157Z,101729.88
2022-11-05T15:25:21.457Z,101735.47
2022-11-05T15:30:23.988Z,101744.44
2022-11-05T15:35:27.904Z,101742.56
2022-11-05T15:40:31.788Z,101747.53
2022-11-05T15:45:36.503Z,101759.84
2022-11-05T15:50:38.274Z,101765.94
2022-11-05T15:55:49.648Z,101764.72
2022-11-05T16:00:52.097Z,101757.41
2022-11-05T16:05:54.121Z,101766.75
2022-11-05T16:10:58.169Z,101760.13
2022-11-05T16:16:02.865Z,101758.88
2022-11-05T16:21:12.064Z,101786.34
2022-11-05T16:31:55.678Z,101800.28
2022-11-05T16:36:58.962Z,101804.91
2022-11-05T16:42:00.525Z,101800.38
2022-11-05T16:47:02.043Z,101795.28
2022-11-05T16:52:08.425Z,101792.66
2022-11-05T16:57:26.720Z,101789.41
2022-11-05T17:02:29.125Z,101790.91
2022-11-05T17:07:34.724Z,101798.94
2022-11-05T17:12:38.725Z,101795.75
2022-11-05T17:17:40.290Z,101785.97
2022-11-05T17:22:41.767Z,101790.72
2022-11-05T17:27:43.378Z,101795.59
2022-11-05T17:32:45.142Z,101801.00
2022-11-05T17:37:46.917Z,101802.19
2022-11-05T17:42:49.292Z,101799.53
2022-11-05T17:47:50.785Z,101799.97
2022-11-05T17:52:52.322Z,101795.13
2022-11-05T17:57:53.794Z,101794.41
2022-11-05T18:02:55.443Z,101792.19
2022-11-05T18:07:57.628Z,101793.69
2022-11-05T18:14:07.487Z,101789.97
2022-11-05T18:19:09.052Z,101785.19
2022-11-05T18:24:11.106Z,101770.75
2022-11-05T18:29:12.579Z,101778.63
2022-11-05T18:34:14.054Z,101791.41
2022-11-05T18:39:15.556Z,101783.66
2022-11-05T18:44:17.211Z,101776.00
2022-11-05T18:49:18.872Z,101776.44
2022-11-05T18:54:21.092Z,101761.88
2022-11-05T18:59:36.652Z,101746.00
2022-11-05T19:04:39.246Z,101740.56
2022-11-05T19:09:40.869Z,101735.44
2022-11-05T19:14:44.624Z,101743.88
2022-11-05T19:19:46.157Z,101751.91
2022-11-05T19:24:47.717Z,101752.91
2022-11-05T19:29:49.329Z,101759.13
2022-11-05T19:34:50.824Z,101772.56
2022-11-05T19:39:52.288Z,101765.53
2022-11-05T19:44:53.849Z,101762.88
2022-11-05T19:49:55.706Z,101769.41
2022-11-05T19:54:57.208Z,101767.00
2022-11-05T19:59:58.748Z,101770.47
2022-11-05T20:05:00.268Z,101783.44
2022-11-05T20:10:01.828Z,101752.59
2022-11-05T20:15:04.085Z,101753.13
2022-11-05T20:20:07.461Z,101750.72
2022-11-05T20:25:10.337Z,101734.28
2022-11-05T20:30:12.127Z,101722.22
2022-11-05T20:35:13.861Z,101727.97
2022-11-05T20:40:15.700Z,101734.00
2022-11-05T20:45:17.302Z,101750.28
2022-11-05T20:50:18.862Z,101739.06
2022-11-05T21:02:20.690Z,101748.25
2022-11-05T21:07:22.250Z,101749.97
2022-11-05T21:12:23.928Z,101740.53
2022-11-05T21:17:25.438Z,101727.56
2022-11-05T21:22:27.149Z,101715.16
2022-11-05T21:27:28.612Z,101711.72
2022-11-05T21:32:30.168Z,101722.75
2022-11-05T21:37:32.284Z,101722.13
2022-11-05T21:42:33.819Z,101715.09
2022-11-05T21:47:35.402Z,101721.31
2022-11-05T21:52:55.395Z,101732.41
2022-11-05T21:58:17.770Z,101728.47
2022-11-05T22:03:19.278Z,101726.16
2022-11-05T22:08:20.807Z,101720.78
2022-11-05T22:13:22.282Z,101724.66
2022-11-05T22:18:23.822Z,101711.47
2022-11-05T22:23:25.343Z,101722.19
2022-11-05T22:28:26.929Z,101727.31
2022-11-05T22:33:28.475Z,101722.19
2022-11-05T22:38:31.020Z,101712.13
2022-11-05T22:43:33.019Z,101714.25
2022-11-05T22:48:35.917Z,101709.22
2022-11-05T22:53:38.314Z,101704.25
2022-11-05T22:58:39.908Z,101708.34
2022-11-05T23:03:43.622Z,101710.22
2022-11-05T23:09:03.877Z,101707.03
2022-11-05T23:14:07.522Z,101709.47
2022-11-05T23:19:28.549Z,101720.25
2022-11-05T23:24:30.085Z,101719.97
2022-11-05T23:29:31.563Z,101720.38
2022-11-05T23:34:33.186Z,101717.16
2022-11-05T23:39:39.678Z,101719.63
2022-11-05T23:45:02.666Z,101712.91
2022-11-05T23:50:04.486Z,101701.44
2022-11-05T23:55:06.228Z,101690.25
